sensor_id;sensor_type;location;lat;lon;timestamp;P1;durP1;ratioP1;P2;durP2;ratioP2
66607;SDS011;53462;39.616;8.824;2023-02-23T00:01:57;18.58;;;11.52;;
66607;SDS011;53462;39.616;8.824;2023-02-23T00:04:27;20.85;;;11.40;;
66607;SDS011;53462;39.616;8.824;2023-02-23T00:06:53;17.27;;;10.77;;
66607;SDS011;53462;39.616;8.824;2023-02-23T00:09:20;19.83;;;12.18;;
66607;SDS011;53462;39.616;8.824;2023-02-23T00:11:52;21.38;;;12.70;;
66607;SDS011;53462;39.616;8.824;2023-02-23T00:14:23;19.70;;;13.13;;
66607;SDS011;53462;39.616;8.824;2023-02-23T00:16:55;18.88;;;12.27;;
66607;SDS011;53462;39.616;8.824;2023-02-23T00:19:21;22.40;;;12.95;;
66607;SDS011;53462;39.616;8.824;2023-02-23T00:21:48;22.10;;;12.98;;
66607;SDS011;53462;39.616;8.824;2023-02-23T00:24:15;23.38;;;13.30;;
66607;SDS011;53462;39.616;8.824;2023-02-23T00:26:51;24.95;;;13.05;;
66607;SDS011;53462;39.616;8.824;2023-02-23T00:29:18;23.15;;;12.55;;
66607;SDS011;53462;39.616;8.824;2023-02-23T00:31:46;21.20;;;12.30;;
66607;SDS011;53462;39.616;8.824;2023-02-23T00:34:14;20.38;;;11.32;;
66607;SDS011;53462;39.616;8.824;2023-02-23T00:36:45;21.02;;;12.43;;
66607;SDS011;53462;39.616;8.824;2023-02-23T00:39:13;21.30;;;11.73;;
66607;SDS011;53462;39.616;8.824;2023-02-23T00:41:58;21.75;;;12.23;;
66607;SDS011;53462;39.616;8.824;2023-02-23T00:44:27;21.60;;;11.88;;
66607;SDS011;53462;39.616;8.824;2023-02-23T00:46:53;18.30;;;11.65;;
66607;SDS011;53462;39.616;8.824;2023-02-23T00:49:20;19.70;;;11.48;;
66607;SDS011;53462;39.616;8.824;2023-02-23T00:51:48;18.42;;;11.27;;
66607;SDS011;53462;39.616;8.824;2023-02-23T00:54:16;17.63;;;11.32;;
66607;SDS011;53462;39.616;8.824;2023-02-23T00:56:43;20.88;;;11.90;;
66607;SDS011;53462;39.616;8.824;2023-02-23T00:59:09;20.95;;;10.88;;
66607;SDS011;53462;39.616;8.824;2023-02-23T01:01:36;20.83;;;11.13;;
66607;SDS011;53462;39.616;8.824;2023-02-23T01:04:05;18.65;;;11.65;;
66607;SDS011;53462;39.616;8.824;2023-02-23T01:06:32;20.85;;;11.57;;
66607;SDS011;53462;39.616;8.824;2023-02-23T01:09:05;19.92;;;12.07;;
66607;SDS011;53462;39.616;8.824;2023-02-23T01:11:37;21.85;;;11.63;;
66607;SDS011;53462;39.616;8.824;2023-02-23T01:14:03;20.98;;;11.40;;
66607;SDS011;53462;39.616;8.824;2023-02-23T01:16:30;21.88;;;11.93;;
66607;SDS011;53462;39.616;8.824;2023-02-23T01:18:59;19.20;;;11.80;;
66607;SDS011;53462;39.616;8.824;2023-02-23T01:21:28;21.48;;;11.95;;
66607;SDS011;53462;39.616;8.824;2023-02-23T01:23:57;21.73;;;11.18;;
66607;SDS011;53462;39.616;8.824;2023-02-23T01:26:25;17.77;;;9.82;;
66607;SDS011;53462;39.616;8.824;2023-02-23T01:28:55;18.08;;;10.32;;
66607;SDS011;53462;39.616;8.824;2023-02-23T01:31:23;17.45;;;10.40;;
66607;SDS011;53462;39.616;8.824;2023-02-23T01:33:53;17.83;;;11.60;;
66607;SDS011;53462;39.616;8.824;2023-02-23T01:36:20;18.90;;;10.43;;
66607;SDS011;53462;39.616;8.824;2023-02-23T01:38:47;28.40;;;15.27;;
66607;SDS011;53462;39.616;8.824;2023-02-23T01:41:14;24.83;;;13.50;;
66607;SDS011;53462;39.616;8.824;2023-02-23T01:44:00;19.95;;;11.82;;
66607;SDS011;53462;39.616;8.824;2023-02-23T01:46:30;21.40;;;11.27;;
66607;SDS011;53462;39.616;8.824;2023-02-23T01:48:57;19.67;;;11.02;;
66607;SDS011;53462;39.616;8.824;2023-02-23T01:51:28;24.13;;;12.52;;
66607;SDS011;53462;39.616;8.824;2023-02-23T01:54:09;22.63;;;12.65;;
66607;SDS011;53462;39.616;8.824;2023-02-23T01:56:41;20.50;;;10.43;;
66607;SDS011;53462;39.616;8.824;2023-02-23T01:59:23;23.17;;;12.55;;
66607;SDS011;53462;39.616;8.824;2023-02-23T02:01:58;23.35;;;12.25;;
66607;SDS011;53462;39.616;8.824;2023-02-23T02:04:24;21.38;;;12.38;;
66607;SDS011;53462;39.616;8.824;2023-02-23T02:06:51;23.08;;;12.25;;
66607;SDS011;53462;39.616;8.824;2023-02-23T02:09:21;25.75;;;15.48;;
66607;SDS011;53462;39.616;8.824;2023-02-23T02:11:50;19.67;;;12.02;;
66607;SDS011;53462;39.616;8.824;2023-02-23T02:14:23;19.05;;;12.15;;
66607;SDS011;53462;39.616;8.824;2023-02-23T02:22:44;20.15;;;11.70;;
66607;SDS011;53462;39.616;8.824;2023-02-23T02:26:14;16.42;;;10.70;;
66607;SDS011;53462;39.616;8.824;2023-02-23T02:44:50;21.80;;;12.00;;
66607;SDS011;53462;39.616;8.824;2023-02-23T02:47:33;20.23;;;11.70;;
66607;SDS011;53462;39.616;8.824;2023-02-23T02:53:00;19.33;;;10.93;;
66607;SDS011;53462;39.616;8.824;2023-02-23T02:55:32;19.20;;;10.68;;
66607;SDS011;53462;39.616;8.824;2023-02-23T02:58:03;20.20;;;10.73;;
66607;SDS011;53462;39.616;8.824;2023-02-23T03:03:38;19.77;;;10.82;;
66607;SDS011;53462;39.616;8.824;2023-02-23T03:06:32;17.63;;;10.55;;
66607;SDS011;53462;39.616;8.824;2023-02-23T03:09:35;20.95;;;12.07;;
66607;SDS011;53462;39.616;8.824;2023-02-23T03:15:23;21.73;;;13.13;;
66607;SDS011;53462;39.616;8.824;2023-02-23T03:18:34;21.80;;;13.05;;
66607;SDS011;53462;39.616;8.824;2023-02-23T03:21:26;19.83;;;11.30;;
66607;SDS011;53462;39.616;8.824;2023-02-23T03:30:21;21.60;;;12.27;;
66607;SDS011;53462;39.616;8.824;2023-02-23T03:33:15;26.58;;;15.15;;
66607;SDS011;53462;39.616;8.824;2023-02-23T03:36:16;22.73;;;13.52;;
66607;SDS011;53462;39.616;8.824;2023-02-23T03:42:05;25.42;;;15.27;;
66607;SDS011;53462;39.616;8.824;2023-02-23T03:44:54;30.98;;;17.38;;
66607;SDS011;53462;39.616;8.824;2023-02-23T03:47:41;30.40;;;17.63;;
66607;SDS011;53462;39.616;8.824;2023-02-23T03:50:42;26.20;;;15.43;;
66607;SDS011;53462;39.616;8.824;2023-02-23T03:53:36;24.50;;;14.35;;
66607;SDS011;53462;39.616;8.824;2023-02-23T03:56:31;24.90;;;14.70;;
66607;SDS011;53462;39.616;8.824;2023-02-23T03:59:21;20.55;;;12.45;;
66607;SDS011;53462;39.616;8.824;2023-02-23T04:02:10;23.88;;;14.00;;
66607;SDS011;53462;39.616;8.824;2023-02-23T04:04:59;23.83;;;13.75;;
66607;SDS011;53462;39.616;8.824;2023-02-23T04:07:45;27.42;;;14.82;;
66607;SDS011;53462;39.616;8.824;2023-02-23T04:10:33;22.55;;;12.70;;
66607;SDS011;53462;39.616;8.824;2023-02-23T04:13:23;23.10;;;12.68;;
66607;SDS011;53462;39.616;8.824;2023-02-23T04:15:54;26.70;;;14.60;;
66607;SDS011;53462;39.616;8.824;2023-02-23T04:18:24;20.95;;;12.52;;
66607;SDS011;53462;39.616;8.824;2023-02-23T04:20:53;22.75;;;13.25;;
66607;SDS011;53462;39.616;8.824;2023-02-23T04:23:20;30.35;;;15.75;;
66607;SDS011;53462;39.616;8.824;2023-02-23T04:25:47;29.25;;;15.00;;
66607;SDS011;53462;39.616;8.824;2023-02-23T04:28:15;30.45;;;16.40;;
66607;SDS011;53462;39.616;8.824;2023-02-23T04:30:41;31.38;;;17.05;;
66607;SDS011;53462;39.616;8.824;2023-02-23T04:33:07;27.30;;;15.63;;
66607;SDS011;53462;39.616;8.824;2023-02-23T04:35:34;28.83;;;15.23;;
66607;SDS011;53462;39.616;8.824;2023-02-23T04:38:00;28.85;;;16.73;;
66607;SDS011;53462;39.616;8.824;2023-02-23T04:40:26;25.85;;;14.88;;
66607;SDS011;53462;39.616;8.824;2023-02-23T04:42:52;26.27;;;15.70;;
66607;SDS011;53462;39.616;8.824;2023-02-23T04:45:19;26.05;;;15.07;;
66607;SDS011;53462;39.616;8.824;2023-02-23T04:47:46;27.65;;;15.15;;
66607;SDS011;53462;39.616;8.824;2023-02-23T04:50:12;27.95;;;15.55;;
66607;SDS011;53462;39.616;8.824;2023-02-23T04:52:38;27.98;;;15.95;;
66607;SDS011;53462;39.616;8.824;2023-02-23T04:55:05;27.95;;;15.57;;
66607;SDS011;53462;39.616;8.824;2023-02-23T04:57:33;27.70;;;15.38;;
66607;SDS011;53462;39.616;8.824;2023-02-23T04:59:59;29.42;;;16.88;;
66607;SDS011;53462;39.616;8.824;2023-02-23T05:02:28;28.17;;;15.68;;
66607;SDS011;53462;39.616;8.824;2023-02-23T05:04:54;30.98;;;14.52;;
66607;SDS011;53462;39.616;8.824;2023-02-23T05:07:20;34.53;;;16.35;;
66607;SDS011;53462;39.616;8.824;2023-02-23T05:09:46;28.20;;;15.63;;
66607;SDS011;53462;39.616;8.824;2023-02-23T05:12:12;35.35;;;17.17;;
66607;SDS011;53462;39.616;8.824;2023-02-23T05:14:38;32.03;;;15.38;;
66607;SDS011;53462;39.616;8.824;2023-02-23T05:17:04;26.42;;;13.93;;
66607;SDS011;53462;39.616;8.824;2023-02-23T05:19:31;24.95;;;13.27;;
66607;SDS011;53462;39.616;8.824;2023-02-23T05:21:56;30.63;;;16.27;;
66607;SDS011;53462;39.616;8.824;2023-02-23T05:24:22;27.50;;;14.15;;
66607;SDS011;53462;39.616;8.824;2023-02-23T05:26:50;21.73;;;13.27;;
66607;SDS011;53462;39.616;8.824;2023-02-23T05:29:16;22.90;;;12.60;;
66607;SDS011;53462;39.616;8.824;2023-02-23T05:31:42;21.52;;;12.73;;
66607;SDS011;53462;39.616;8.824;2023-02-23T05:34:08;22.92;;;12.30;;
66607;SDS011;53462;39.616;8.824;2023-02-23T05:36:34;26.58;;;13.48;;
66607;SDS011;53462;39.616;8.824;2023-02-23T05:39:01;30.38;;;14.00;;
66607;SDS011;53462;39.616;8.824;2023-02-23T05:41:27;27.17;;;14.32;;
66607;SDS011;53462;39.616;8.824;2023-02-23T05:43:53;27.13;;;14.65;;
66607;SDS011;53462;39.616;8.824;2023-02-23T05:46:20;27.13;;;15.45;;
66607;SDS011;53462;39.616;8.824;2023-02-23T05:48:50;22.75;;;12.43;;
66607;SDS011;53462;39.616;8.824;2023-02-23T05:51:19;17.95;;;10.90;;
66607;SDS011;53462;39.616;8.824;2023-02-23T05:53:45;23.00;;;13.13;;
66607;SDS011;53462;39.616;8.824;2023-02-23T05:56:14;26.00;;;12.90;;
66607;SDS011;53462;39.616;8.824;2023-02-23T05:58:45;24.05;;;12.07;;
66607;SDS011;53462;39.616;8.824;2023-02-23T06:01:15;22.95;;;12.65;;
66607;SDS011;53462;39.616;8.824;2023-02-23T06:03:42;22.25;;;12.60;;
66607;SDS011;53462;39.616;8.824;2023-02-23T06:06:09;26.65;;;11.75;;
66607;SDS011;53462;39.616;8.824;2023-02-23T06:08:35;19.27;;;11.20;;
66607;SDS011;53462;39.616;8.824;2023-02-23T06:11:01;24.85;;;13.35;;
66607;SDS011;53462;39.616;8.824;2023-02-23T06:13:28;23.10;;;12.40;;
66607;SDS011;53462;39.616;8.824;2023-02-23T06:15:56;22.10;;;12.55;;
66607;SDS011;53462;39.616;8.824;2023-02-23T06:18:23;24.75;;;12.85;;
66607;SDS011;53462;39.616;8.824;2023-02-23T06:20:50;23.77;;;13.13;;
66607;SDS011;53462;39.616;8.824;2023-02-23T06:23:16;24.15;;;12.70;;
66607;SDS011;53462;39.616;8.824;2023-02-23T06:25:43;26.85;;;13.48;;
66607;SDS011;53462;39.616;8.824;2023-02-23T06:28:10;23.85;;;12.95;;
66607;SDS011;53462;39.616;8.824;2023-02-23T06:30:38;25.17;;;12.80;;
66607;SDS011;53462;39.616;8.824;2023-02-23T06:33:04;23.40;;;12.05;;
66607;SDS011;53462;39.616;8.824;2023-02-23T06:35:31;27.35;;;13.98;;
66607;SDS011;53462;39.616;8.824;2023-02-23T06:37:58;27.60;;;13.55;;
66607;SDS011;53462;39.616;8.824;2023-02-23T06:40:25;22.63;;;12.50;;
66607;SDS011;53462;39.616;8.824;2023-02-23T06:42:51;22.92;;;13.20;;
66607;SDS011;53462;39.616;8.824;2023-02-23T06:45:17;23.33;;;12.85;;
66607;SDS011;53462;39.616;8.824;2023-02-23T06:47:44;29.08;;;13.80;;
66607;SDS011;53462;39.616;8.824;2023-02-23T06:50:11;25.25;;;13.18;;
66607;SDS011;53462;39.616;8.824;2023-02-23T06:52:37;20.63;;;11.65;;
66607;SDS011;53462;39.616;8.824;2023-02-23T06:55:04;28.42;;;13.48;;
66607;SDS011;53462;39.616;8.824;2023-02-23T06:57:30;30.13;;;15.65;;
66607;SDS011;53462;39.616;8.824;2023-02-23T06:59:56;28.02;;;13.93;;
66607;SDS011;53462;39.616;8.824;2023-02-23T07:02:22;26.95;;;14.02;;
66607;SDS011;53462;39.616;8.824;2023-02-23T07:04:48;26.77;;;14.23;;
66607;SDS011;53462;39.616;8.824;2023-02-23T07:07:14;27.08;;;14.77;;
66607;SDS011;53462;39.616;8.824;2023-02-23T07:09:40;25.42;;;14.10;;
66607;SDS011;53462;39.616;8.824;2023-02-23T07:12:07;27.08;;;15.02;;
66607;SDS011;53462;39.616;8.824;2023-02-23T07:14:34;26.35;;;14.50;;
66607;SDS011;53462;39.616;8.824;2023-02-23T07:17:02;25.85;;;14.68;;
66607;SDS011;53462;39.616;8.824;2023-02-23T07:19:28;26.30;;;15.02;;
66607;SDS011;53462;39.616;8.824;2023-02-23T07:21:55;28.25;;;14.45;;
66607;SDS011;53462;39.616;8.824;2023-02-23T07:24:21;29.30;;;15.15;;
66607;SDS011;53462;39.616;8.824;2023-02-23T07:26:47;29.23;;;14.45;;
66607;SDS011;53462;39.616;8.824;2023-02-23T07:29:14;28.95;;;13.88;;
66607;SDS011;53462;39.616;8.824;2023-02-23T07:31:40;28.63;;;13.80;;
66607;SDS011;53462;39.616;8.824;2023-02-23T07:34:06;27.40;;;14.52;;
66607;SDS011;53462;39.616;8.824;2023-02-23T07:36:33;26.13;;;13.80;;
66607;SDS011;53462;39.616;8.824;2023-02-23T07:39:00;25.73;;;14.02;;
66607;SDS011;53462;39.616;8.824;2023-02-23T07:41:26;27.58;;;13.95;;
66607;SDS011;53462;39.616;8.824;2023-02-23T07:43:52;27.70;;;14.38;;
66607;SDS011;53462;39.616;8.824;2023-02-23T07:46:18;29.80;;;13.82;;
66607;SDS011;53462;39.616;8.824;2023-02-23T07:48:44;26.05;;;14.27;;
66607;SDS011;53462;39.616;8.824;2023-02-23T07:51:11;29.30;;;14.73;;
66607;SDS011;53462;39.616;8.824;2023-02-23T07:53:39;27.73;;;13.48;;
66607;SDS011;53462;39.616;8.824;2023-02-23T07:56:06;26.35;;;13.55;;
66607;SDS011;53462;39.616;8.824;2023-02-23T07:58:40;29.58;;;15.68;;
66607;SDS011;53462;39.616;8.824;2023-02-23T08:01:08;32.65;;;16.10;;
66607;SDS011;53462;39.616;8.824;2023-02-23T08:03:35;28.38;;;14.60;;
66607;SDS011;53462;39.616;8.824;2023-02-23T08:06:01;24.63;;;13.30;;
66607;SDS011;53462;39.616;8.824;2023-02-23T08:08:27;31.50;;;15.90;;
66607;SDS011;53462;39.616;8.824;2023-02-23T08:10:59;27.40;;;14.65;;
66607;SDS011;53462;39.616;8.824;2023-02-23T08:13:27;23.08;;;13.48;;
66607;SDS011;53462;39.616;8.824;2023-02-23T08:15:54;27.13;;;14.40;;
66607;SDS011;53462;39.616;8.824;2023-02-23T08:18:19;27.08;;;13.75;;
66607;SDS011;53462;39.616;8.824;2023-02-23T08:20:45;24.95;;;13.23;;
66607;SDS011;53462;39.616;8.824;2023-02-23T08:23:12;22.95;;;12.15;;
66607;SDS011;53462;39.616;8.824;2023-02-23T08:25:38;23.73;;;13.50;;
66607;SDS011;53462;39.616;8.824;2023-02-23T08:28:04;25.63;;;12.93;;
66607;SDS011;53462;39.616;8.824;2023-02-23T08:30:31;22.52;;;12.15;;
66607;SDS011;53462;39.616;8.824;2023-02-23T08:32:58;23.25;;;11.88;;
66607;SDS011;53462;39.616;8.824;2023-02-23T08:35:26;23.85;;;11.82;;
66607;SDS011;53462;39.616;8.824;2023-02-23T08:37:54;26.05;;;11.93;;
66607;SDS011;53462;39.616;8.824;2023-02-23T08:40:21;25.98;;;12.80;;
66607;SDS011;53462;39.616;8.824;2023-02-23T08:42:47;22.10;;;12.98;;
66607;SDS011;53462;39.616;8.824;2023-02-23T08:45:15;21.77;;;11.85;;
66607;SDS011;53462;39.616;8.824;2023-02-23T08:47:42;27.90;;;14.07;;
66607;SDS011;53462;39.616;8.824;2023-02-23T08:50:08;24.17;;;13.23;;
66607;SDS011;53462;39.616;8.824;2023-02-23T08:52:36;25.90;;;13.18;;
66607;SDS011;53462;39.616;8.824;2023-02-23T08:55:02;25.55;;;13.80;;
66607;SDS011;53462;39.616;8.824;2023-02-23T08:57:31;26.60;;;13.18;;
66607;SDS011;53462;39.616;8.824;2023-02-23T08:59:58;29.83;;;15.77;;
66607;SDS011;53462;39.616;8.824;2023-02-23T09:02:24;28.38;;;14.40;;
66607;SDS011;53462;39.616;8.824;2023-02-23T09:04:49;21.98;;;12.07;;
66607;SDS011;53462;39.616;8.824;2023-02-23T09:07:18;21.38;;;11.75;;
66607;SDS011;53462;39.616;8.824;2023-02-23T09:09:54;24.75;;;13.40;;
66607;SDS011;53462;39.616;8.824;2023-02-23T09:12:20;25.53;;;13.20;;
66607;SDS011;53462;39.616;8.824;2023-02-23T09:14:46;29.65;;;14.95;;
66607;SDS011;53462;39.616;8.824;2023-02-23T09:17:12;26.70;;;13.13;;
66607;SDS011;53462;39.616;8.824;2023-02-23T09:19:38;29.30;;;14.48;;
66607;SDS011;53462;39.616;8.824;2023-02-23T09:22:04;29.50;;;13.43;;
66607;SDS011;53462;39.616;8.824;2023-02-23T09:24:30;28.92;;;13.52;;
66607;SDS011;53462;39.616;8.824;2023-02-23T09:26:56;24.77;;;13.85;;
66607;SDS011;53462;39.616;8.824;2023-02-23T09:29:22;30.40;;;15.93;;
66607;SDS011;53462;39.616;8.824;2023-02-23T09:31:48;29.25;;;15.30;;
66607;SDS011;53462;39.616;8.824;2023-02-23T09:34:17;28.75;;;15.93;;
66607;SDS011;53462;39.616;8.824;2023-02-23T09:36:43;27.98;;;15.07;;
66607;SDS011;53462;39.616;8.824;2023-02-23T09:39:09;32.88;;;16.70;;
66607;SDS011;53462;39.616;8.824;2023-02-23T09:41:45;34.50;;;17.83;;
66607;SDS011;53462;39.616;8.824;2023-02-23T09:50:14;29.70;;;15.45;;
66607;SDS011;53462;39.616;8.824;2023-02-23T09:52:46;34.25;;;16.92;;
66607;SDS011;53462;39.616;8.824;2023-02-23T09:55:16;30.45;;;16.38;;
66607;SDS011;53462;39.616;8.824;2023-02-23T09:57:43;31.60;;;16.63;;
66607;SDS011;53462;39.616;8.824;2023-02-23T10:05:47;32.72;;;15.90;;
66607;SDS011;53462;39.616;8.824;2023-02-23T10:08:21;28.52;;;15.63;;
66607;SDS011;53462;39.616;8.824;2023-02-23T10:11:05;32.10;;;16.30;;
66607;SDS011;53462;39.616;8.824;2023-02-23T10:21:39;30.90;;;16.05;;
66607;SDS011;53462;39.616;8.824;2023-02-23T10:24:10;33.10;;;16.02;;
66607;SDS011;53462;39.616;8.824;2023-02-23T10:26:57;34.15;;;15.93;;
66607;SDS011;53462;39.616;8.824;2023-02-23T10:29:34;31.20;;;15.85;;
66607;SDS011;53462;39.616;8.824;2023-02-23T10:32:13;31.40;;;15.88;;
66607;SDS011;53462;39.616;8.824;2023-02-23T10:34:55;28.27;;;15.63;;
66607;SDS011;53462;39.616;8.824;2023-02-23T10:37:21;38.83;;;20.98;;
66607;SDS011;53462;39.616;8.824;2023-02-23T10:39:49;32.00;;;16.88;;
66607;SDS011;53462;39.616;8.824;2023-02-23T10:42:17;28.58;;;15.02;;
66607;SDS011;53462;39.616;8.824;2023-02-23T10:44:47;29.70;;;15.50;;
66607;SDS011;53462;39.616;8.824;2023-02-23T10:47:24;29.63;;;15.75;;
66607;SDS011;53462;39.616;8.824;2023-02-23T10:49:53;33.42;;;17.13;;
66607;SDS011;53462;39.616;8.824;2023-02-23T10:52:42;28.90;;;16.55;;
66607;SDS011;53462;39.616;8.824;2023-02-23T10:58:14;26.10;;;15.07;;
66607;SDS011;53462;39.616;8.824;2023-02-23T11:01:00;29.42;;;17.23;;
66607;SDS011;53462;39.616;8.824;2023-02-23T11:03:29;28.52;;;15.88;;
66607;SDS011;53462;39.616;8.824;2023-02-23T11:06:05;28.58;;;15.70;;
66607;SDS011;53462;39.616;8.824;2023-02-23T11:08:33;32.25;;;17.10;;
66607;SDS011;53462;39.616;8.824;2023-02-23T11:13:50;28.77;;;15.55;;
66607;SDS011;53462;39.616;8.824;2023-02-23T11:16:27;24.48;;;15.25;;
66607;SDS011;53462;39.616;8.824;2023-02-23T11:18:58;27.85;;;15.43;;
66607;SDS011;53462;39.616;8.824;2023-02-23T11:21:33;27.63;;;15.38;;
66607;SDS011;53462;39.616;8.824;2023-02-23T11:27:03;33.47;;;16.27;;
66607;SDS011;53462;39.616;8.824;2023-02-23T11:29:37;28.67;;;17.67;;
66607;SDS011;53462;39.616;8.824;2023-02-23T11:37:46;32.28;;;18.10;;
66607;SDS011;53462;39.616;8.824;2023-02-23T11:40:24;28.20;;;16.67;;
66607;SDS011;53462;39.616;8.824;2023-02-23T11:42:56;30.23;;;17.25;;
66607;SDS011;53462;39.616;8.824;2023-02-23T11:45:36;36.67;;;19.08;;
66607;SDS011;53462;39.616;8.824;2023-02-23T11:48:25;47.38;;;26.23;;
66607;SDS011;53462;39.616;8.824;2023-02-23T11:50:54;30.65;;;17.88;;
66607;SDS011;53462;39.616;8.824;2023-02-23T11:56:00;35.25;;;19.27;;
66607;SDS011;53462;39.616;8.824;2023-02-23T12:01:07;22.75;;;14.90;;
66607;SDS011;53462;39.616;8.824;2023-02-23T12:03:55;25.45;;;14.73;;
66607;SDS011;53462;39.616;8.824;2023-02-23T12:06:40;30.15;;;13.38;;
66607;SDS011;53462;39.616;8.824;2023-02-23T12:09:17;26.48;;;13.75;;
66607;SDS011;53462;39.616;8.824;2023-02-23T12:12:05;24.10;;;13.48;;
66607;SDS011;53462;39.616;8.824;2023-02-23T12:14:48;28.58;;;17.38;;
66607;SDS011;53462;39.616;8.824;2023-02-23T12:17:22;22.08;;;12.77;;
66607;SDS011;53462;39.616;8.824;2023-02-23T12:19:54;17.90;;;11.95;;
66607;SDS011;53462;39.616;8.824;2023-02-23T12:22:38;17.90;;;11.65;;
66607;SDS011;53462;39.616;8.824;2023-02-23T12:25:23;18.30;;;10.73;;
66607;SDS011;53462;39.616;8.824;2023-02-23T12:27:56;18.77;;;10.30;;
66607;SDS011;53462;39.616;8.824;2023-02-23T12:30:45;15.43;;;10.55;;
66607;SDS011;53462;39.616;8.824;2023-02-23T12:33:18;18.52;;;11.18;;
66607;SDS011;53462;39.616;8.824;2023-02-23T12:36:22;21.05;;;11.18;;
66607;SDS011;53462;39.616;8.824;2023-02-23T12:41:43;15.68;;;10.40;;
66607;SDS011;53462;39.616;8.824;2023-02-23T12:44:31;19.02;;;10.38;;
66607;SDS011;53462;39.616;8.824;2023-02-23T12:50:01;14.10;;;8.95;;
66607;SDS011;53462;39.616;8.824;2023-02-23T12:52:48;16.83;;;8.82;;
66607;SDS011;53462;39.616;8.824;2023-02-23T12:55:26;12.30;;;8.15;;
66607;SDS011;53462;39.616;8.824;2023-02-23T12:58:02;11.85;;;7.68;;
66607;SDS011;53462;39.616;8.824;2023-02-23T13:00:42;12.00;;;6.95;;
66607;SDS011;53462;39.616;8.824;2023-02-23T13:06:19;14.70;;;6.68;;
66607;SDS011;53462;39.616;8.824;2023-02-23T13:11:49;14.25;;;8.35;;
66607;SDS011;53462;39.616;8.824;2023-02-23T13:17:36;13.07;;;8.00;;
66607;SDS011;53462;39.616;8.824;2023-02-23T13:23:12;15.27;;;7.70;;
66607;SDS011;53462;39.616;8.824;2023-02-23T13:26:10;11.73;;;7.13;;
66607;SDS011;53462;39.616;8.824;2023-02-23T13:29:02;13.48;;;7.80;;
66607;SDS011;53462;39.616;8.824;2023-02-23T13:31:51;11.52;;;7.57;;
66607;SDS011;53462;39.616;8.824;2023-02-23T13:34:24;12.50;;;6.90;;
66607;SDS011;53462;39.616;8.824;2023-02-23T13:36:58;11.02;;;7.30;;
66607;SDS011;53462;39.616;8.824;2023-02-23T13:42:20;13.10;;;7.03;;
66607;SDS011;53462;39.616;8.824;2023-02-23T13:47:57;14.07;;;7.78;;
66607;SDS011;53462;39.616;8.824;2023-02-23T13:53:42;15.70;;;7.90;;
66607;SDS011;53462;39.616;8.824;2023-02-23T13:56:15;13.57;;;8.02;;
66607;SDS011;53462;39.616;8.824;2023-02-23T14:01:36;12.43;;;7.80;;
66607;SDS011;53462;39.616;8.824;2023-02-23T14:04:05;12.93;;;7.75;;
66607;SDS011;53462;39.616;8.824;2023-02-23T14:06:38;15.23;;;7.78;;
66607;SDS011;53462;39.616;8.824;2023-02-23T14:09:27;15.40;;;7.75;;
66607;SDS011;53462;39.616;8.824;2023-02-23T14:12:00;17.90;;;8.23;;
66607;SDS011;53462;39.616;8.824;2023-02-23T14:18:00;14.65;;;7.70;;
66607;SDS011;53462;39.616;8.824;2023-02-23T14:20:54;13.52;;;8.40;;
66607;SDS011;53462;39.616;8.824;2023-02-23T14:23:28;17.40;;;8.00;;
66607;SDS011;53462;39.616;8.824;2023-02-23T14:28:43;12.68;;;8.60;;
66607;SDS011;53462;39.616;8.824;2023-02-23T14:31:33;15.77;;;8.32;;
66607;SDS011;53462;39.616;8.824;2023-02-23T14:34:02;12.55;;;7.95;;
66607;SDS011;53462;39.616;8.824;2023-02-23T14:36:41;12.68;;;8.10;;
66607;SDS011;53462;39.616;8.824;2023-02-23T14:39:13;12.90;;;8.38;;
66607;SDS011;53462;39.616;8.824;2023-02-23T14:44:23;13.77;;;8.27;;
66607;SDS011;53462;39.616;8.824;2023-02-23T14:47:01;10.68;;;7.63;;
66607;SDS011;53462;39.616;8.824;2023-02-23T14:49:33;11.73;;;7.97;;
66607;SDS011;53462;39.616;8.824;2023-02-23T14:52:04;17.45;;;9.57;;
66607;SDS011;53462;39.616;8.824;2023-02-23T14:54:51;15.65;;;7.25;;
66607;SDS011;53462;39.616;8.824;2023-02-23T14:57:34;12.73;;;7.82;;
66607;SDS011;53462;39.616;8.824;2023-02-23T15:00:01;11.75;;;7.40;;
66607;SDS011;53462;39.616;8.824;2023-02-23T15:02:32;15.77;;;8.10;;
66607;SDS011;53462;39.616;8.824;2023-02-23T15:04:58;14.88;;;8.57;;
66607;SDS011;53462;39.616;8.824;2023-02-23T15:07:29;11.90;;;7.38;;
66607;SDS011;53462;39.616;8.824;2023-02-23T15:09:59;15.35;;;7.93;;
66607;SDS011;53462;39.616;8.824;2023-02-23T15:12:28;11.88;;;7.85;;
66607;SDS011;53462;39.616;8.824;2023-02-23T15:15:03;12.73;;;7.32;;
66607;SDS011;53462;39.616;8.824;2023-02-23T15:17:37;13.48;;;8.52;;
66607;SDS011;53462;39.616;8.824;2023-02-23T15:20:11;13.35;;;7.97;;
66607;SDS011;53462;39.616;8.824;2023-02-23T15:22:47;12.32;;;7.78;;
66607;SDS011;53462;39.616;8.824;2023-02-23T15:25:22;13.57;;;7.90;;
66607;SDS011;53462;39.616;8.824;2023-02-23T15:27:50;12.23;;;7.78;;
66607;SDS011;53462;39.616;8.824;2023-02-23T15:30:30;16.85;;;9.32;;
66607;SDS011;53462;39.616;8.824;2023-02-23T15:35:33;13.18;;;8.50;;
66607;SDS011;53462;39.616;8.824;2023-02-23T15:38:06;18.98;;;9.90;;
66607;SDS011;53462;39.616;8.824;2023-02-23T15:40:34;16.40;;;9.48;;
66607;SDS011;53462;39.616;8.824;2023-02-23T15:43:00;15.90;;;10.55;;
66607;SDS011;53462;39.616;8.824;2023-02-23T15:45:30;16.63;;;10.00;;
66607;SDS011;53462;39.616;8.824;2023-02-23T15:48:07;14.88;;;9.95;;
66607;SDS011;53462;39.616;8.824;2023-02-23T15:50:51;15.25;;;10.05;;
66607;SDS011;53462;39.616;8.824;2023-02-23T15:55:47;19.25;;;9.95;;
66607;SDS011;53462;39.616;8.824;2023-02-23T15:58:26;17.45;;;9.63;;
66607;SDS011;53462;39.616;8.824;2023-02-23T16:00:55;14.98;;;9.48;;
66607;SDS011;53462;39.616;8.824;2023-02-23T16:03:23;16.08;;;10.13;;
66607;SDS011;53462;39.616;8.824;2023-02-23T16:08:28;16.50;;;9.93;;
66607;SDS011;53462;39.616;8.824;2023-02-23T16:11:13;14.52;;;9.40;;
66607;SDS011;53462;39.616;8.824;2023-02-23T16:13:43;14.32;;;9.43;;
66607;SDS011;53462;39.616;8.824;2023-02-23T16:16:10;14.90;;;9.40;;
66607;SDS011;53462;39.616;8.824;2023-02-23T16:18:43;14.88;;;9.85;;
66607;SDS011;53462;39.616;8.824;2023-02-23T16:21:18;15.15;;;9.90;;
66607;SDS011;53462;39.616;8.824;2023-02-23T16:23:47;14.32;;;9.77;;
66607;SDS011;53462;39.616;8.824;2023-02-23T16:26:23;14.32;;;9.32;;
66607;SDS011;53462;39.616;8.824;2023-02-23T16:31:59;20.27;;;12.98;;
66607;SDS011;53462;39.616;8.824;2023-02-23T16:34:28;16.60;;;10.60;;
66607;SDS011;53462;39.616;8.824;2023-02-23T16:36:59;16.45;;;10.80;;
66607;SDS011;53462;39.616;8.824;2023-02-23T16:39:28;21.60;;;9.50;;
66607;SDS011;53462;39.616;8.824;2023-02-23T16:41:58;18.90;;;9.57;;
66607;SDS011;53462;39.616;8.824;2023-02-23T16:44:25;15.70;;;9.98;;
66607;SDS011;53462;39.616;8.824;2023-02-23T16:46:57;15.35;;;10.05;;
66607;SDS011;53462;39.616;8.824;2023-02-23T16:49:36;14.60;;;10.13;;
66607;SDS011;53462;39.616;8.824;2023-02-23T16:52:05;15.38;;;9.15;;
66607;SDS011;53462;39.616;8.824;2023-02-23T16:54:40;22.23;;;11.30;;
66607;SDS011;53462;39.616;8.824;2023-02-23T16:57:09;20.95;;;10.43;;
66607;SDS011;53462;39.616;8.824;2023-02-23T16:59:42;21.55;;;10.98;;
66607;SDS011;53462;39.616;8.824;2023-02-23T17:02:09;25.67;;;13.48;;